sensor_id;sensor_type;location;lat;lon;timestamp;temperature;humidity
7254;DHT22;4060;49.186;9.226;2024-02-15T00:00:43;13.70;76.60
7254;DHT22;4060;49.186;9.226;2024-02-15T00:03:12;13.70;76.60
7254;DHT22;4060;49.186;9.226;2024-02-15T00:05:44;13.70;76.50
7254;DHT22;4060;49.186;9.226;2024-02-15T00:08:16;13.70;76.50
7254;DHT22;4060;49.186;9.226;2024-02-15T00:10:47;13.70;76.50
7254;DHT22;4060;49.186;9.226;2024-02-15T00:13:17;13.70;76.60
7254;DHT22;4060;49.186;9.226;2024-02-15T00:15:46;13.70;76.60
7254;DHT22;4060;49.186;9.226;2024-02-15T00:18:18;13.70;76.60
7254;DHT22;4060;49.186;9.226;2024-02-15T00:20:48;13.70;76.60
7254;DHT22;4060;49.186;9.226;2024-02-15T00:23:21;13.70;76.60
7254;DHT22;4060;49.186;9.226;2024-02-15T00:25:51;13.60;76.50
7254;DHT22;4060;49.186;9.226;2024-02-15T00:28:21;13.70;76.70
7254;DHT22;4060;49.186;9.226;2024-02-15T00:30:51;13.60;76.60
7254;DHT22;4060;49.186;9.226;2024-02-15T00:33:21;13.60;76.50
7254;DHT22;4060;49.186;9.226;2024-02-15T00:35:50;13.60;76.50
7254;DHT22;4060;49.186;9.226;2024-02-15T00:38:23;13.60;77.30
7254;DHT22;4060;49.186;9.226;2024-02-15T00:40:53;13.60;76.60
7254;DHT22;4060;49.186;9.226;2024-02-15T00:43:23;13.60;76.60
7254;DHT22;4060;49.186;9.226;2024-02-15T00:45:52;13.60;76.60
7254;DHT22;4060;49.186;9.226;2024-02-15T00:48:21;13.60;76.70
7254;DHT22;4060;49.186;9.226;2024-02-15T00:50:56;13.60;76.80
7254;DHT22;4060;49.186;9.226;2024-02-15T00:53:28;13.60;76.70
7254;DHT22;4060;49.186;9.226;2024-02-15T00:55:58;13.60;76.70
7254;DHT22;4060;49.186;9.226;2024-02-15T00:58:27;13.60;76.80
7254;DHT22;4060;49.186;9.226;2024-02-15T01:00:57;13.60;76.70
7254;DHT22;4060;49.186;9.226;2024-02-15T01:03:27;13.60;76.70
7254;DHT22;4060;49.186;9.226;2024-02-15T01:05:56;13.60;76.80
7254;DHT22;4060;49.186;9.226;2024-02-15T01:08:28;13.60;76.70
7254;DHT22;4060;49.186;9.226;2024-02-15T01:10:58;13.60;76.70
7254;DHT22;4060;49.186;9.226;2024-02-15T01:13:27;13.60;76.70
7254;DHT22;4060;49.186;9.226;2024-02-15T01:15:57;13.60;76.60
7254;DHT22;4060;49.186;9.226;2024-02-15T01:18:28;13.60;76.70
7254;DHT22;4060;49.186;9.226;2024-02-15T01:20:59;13.60;76.70
7254;DHT22;4060;49.186;9.226;2024-02-15T01:23:32;13.60;76.70
7254;DHT22;4060;49.186;9.226;2024-02-15T01:26:04;13.50;76.70
7254;DHT22;4060;49.186;9.226;2024-02-15T01:28:34;13.50;76.70
7254;DHT22;4060;49.186;9.226;2024-02-15T01:31:04;13.50;77.40
7254;DHT22;4060;49.186;9.226;2024-02-15T01:33:35;13.50;76.80
7254;DHT22;4060;49.186;9.226;2024-02-15T01:36:06;13.50;76.70
7254;DHT22;4060;49.186;9.226;2024-02-15T01:38:38;13.50;76.80
7254;DHT22;4060;49.186;9.226;2024-02-15T01:41:08;13.50;76.80
7254;DHT22;4060;49.186;9.226;2024-02-15T01:43:38;13.50;76.80
7254;DHT22;4060;49.186;9.226;2024-02-15T01:46:09;13.50;76.80
7254;DHT22;4060;49.186;9.226;2024-02-15T01:48:40;13.50;76.80
7254;DHT22;4060;49.186;9.226;2024-02-15T01:51:11;13.50;76.90
7254;DHT22;4060;49.186;9.226;2024-02-15T01:53:43;13.50;76.70
7254;DHT22;4060;49.186;9.226;2024-02-15T01:56:15;13.50;76.80
7254;DHT22;4060;49.186;9.226;2024-02-15T01:58:48;13.50;76.70
7254;DHT22;4060;49.186;9.226;2024-02-15T02:01:18;13.50;76.70
7254;DHT22;4060;49.186;9.226;2024-02-15T02:03:48;13.50;76.70
7254;DHT22;4060;49.186;9.226;2024-02-15T02:06:18;13.50;76.70
7254;DHT22;4060;49.186;9.226;2024-02-15T02:08:49;13.50;76.50
7254;DHT22;4060;49.186;9.226;2024-02-15T02:11:19;13.50;76.60
7254;DHT22;4060;49.186;9.226;2024-02-15T02:13:49;13.50;76.50
7254;DHT22;4060;49.186;9.226;2024-02-15T02:16:25;13.50;76.50
7254;DHT22;4060;49.186;9.226;2024-02-15T02:18:56;13.40;76.30
7254;DHT22;4060;49.186;9.226;2024-02-15T02:21:26;13.40;76.30
7254;DHT22;4060;49.186;9.226;2024-02-15T02:23:58;13.40;76.30
7254;DHT22;4060;49.186;9.226;2024-02-15T02:26:32;13.40;76.40
7254;DHT22;4060;49.186;9.226;2024-02-15T02:29:01;13.40;76.40
7254;DHT22;4060;49.186;9.226;2024-02-15T02:31:33;13.40;76.30
7254;DHT22;4060;49.186;9.226;2024-02-15T02:34:03;13.40;76.40
7254;DHT22;4060;49.186;9.226;2024-02-15T02:36:34;13.40;76.40
7254;DHT22;4060;49.186;9.226;2024-02-15T02:39:03;13.40;76.40
7254;DHT22;4060;49.186;9.226;2024-02-15T02:41:38;13.40;76.40
7254;DHT22;4060;49.186;9.226;2024-02-15T02:44:07;13.40;76.40
7254;DHT22;4060;49.186;9.226;2024-02-15T02:46:37;13.40;76.40
7254;DHT22;4060;49.186;9.226;2024-02-15T02:49:10;13.40;76.50
7254;DHT22;4060;49.186;9.226;2024-02-15T02:51:40;13.40;76.60
7254;DHT22;4060;49.186;9.226;2024-02-15T02:54:10;13.40;76.60
7254;DHT22;4060;49.186;9.226;2024-02-15T02:56:48;13.40;76.60
7254;DHT22;4060;49.186;9.226;2024-02-15T02:59:17;13.40;76.70
7254;DHT22;4060;49.186;9.226;2024-02-15T03:01:45;13.40;76.80
7254;DHT22;4060;49.186;9.226;2024-02-15T03:04:16;13.40;76.80
7254;DHT22;4060;49.186;9.226;2024-02-15T03:06:46;13.40;76.80
7254;DHT22;4060;49.186;9.226;2024-02-15T03:09:15;13.30;76.70
7254;DHT22;4060;49.186;9.226;2024-02-15T03:11:50;13.30;76.80
7254;DHT22;4060;49.186;9.226;2024-02-15T03:14:20;13.30;76.70
7254;DHT22;4060;49.186;9.226;2024-02-15T03:16:50;13.30;76.80
7254;DHT22;4060;49.186;9.226;2024-02-15T03:19:19;13.30;76.80
7254;DHT22;4060;49.186;9.226;2024-02-15T03:21:49;13.30;76.80
7254;DHT22;4060;49.186;9.226;2024-02-15T03:24:20;13.30;76.80
7254;DHT22;4060;49.186;9.226;2024-02-15T03:26:54;13.30;76.80
7254;DHT22;4060;49.186;9.226;2024-02-15T03:29:23;13.30;76.80
7254;DHT22;4060;49.186;9.226;2024-02-15T03:31:54;13.30;76.90
7254;DHT22;4060;49.186;9.226;2024-02-15T03:34:24;13.30;77.00
7254;DHT22;4060;49.186;9.226;2024-02-15T03:36:53;13.30;77.00
7254;DHT22;4060;49.186;9.226;2024-02-15T03:39:23;13.30;77.00
7254;DHT22;4060;49.186;9.226;2024-02-15T03:41:56;13.30;77.10
7254;DHT22;4060;49.186;9.226;2024-02-15T03:44:26;13.30;77.00
7254;DHT22;4060;49.186;9.226;2024-02-15T03:46:55;13.30;77.10
7254;DHT22;4060;49.186;9.226;2024-02-15T03:49:27;13.30;77.10
7254;DHT22;4060;49.186;9.226;2024-02-15T03:51:59;13.30;77.00
7254;DHT22;4060;49.186;9.226;2024-02-15T03:54:28;13.30;77.10
7254;DHT22;4060;49.186;9.226;2024-02-15T03:57:00;13.30;77.10
7254;DHT22;4060;49.186;9.226;2024-02-15T03:59:30;13.30;77.10
7254;DHT22;4060;49.186;9.226;2024-02-15T04:01:59;13.30;77.10
7254;DHT22;4060;49.186;9.226;2024-02-15T04:04:31;13.30;77.10
7254;DHT22;4060;49.186;9.226;2024-02-15T04:07:02;13.30;77.10
7254;DHT22;4060;49.186;9.226;2024-02-15T04:09:33;13.30;77.10
7254;DHT22;4060;49.186;9.226;2024-02-15T04:12:06;13.30;77.10
7254;DHT22;4060;49.186;9.226;2024-02-15T04:14:35;13.30;77.10
7254;DHT22;4060;49.186;9.226;2024-02-15T04:17:05;13.20;77.00
7254;DHT22;4060;49.186;9.226;2024-02-15T04:19:35;13.20;77.00
7254;DHT22;4060;49.186;9.226;2024-02-15T04:22:06;13.20;77.00
7254;DHT22;4060;49.186;9.226;2024-02-15T04:24:37;13.20;77.00
7254;DHT22;4060;49.186;9.226;2024-02-15T04:27:09;13.20;76.90
7254;DHT22;4060;49.186;9.226;2024-02-15T04:29:41;13.20;76.90
7254;DHT22;4060;49.186;9.226;2024-02-15T04:32:11;13.20;76.80
7254;DHT22;4060;49.186;9.226;2024-02-15T04:34:41;13.20;76.90
7254;DHT22;4060;49.186;9.226;2024-02-15T04:37:13;13.20;76.90
7254;DHT22;4060;49.186;9.226;2024-02-15T04:39:45;13.20;76.80
7254;DHT22;4060;49.186;9.226;2024-02-15T04:42:17;13.20;76.90
7254;DHT22;4060;49.186;9.226;2024-02-15T04:44:47;13.20;76.80
7254;DHT22;4060;49.186;9.226;2024-02-15T04:47:20;13.20;76.70
7254;DHT22;4060;49.186;9.226;2024-02-15T04:49:50;13.20;76.80
7254;DHT22;4060;49.186;9.226;2024-02-15T04:52:20;13.20;76.80
7254;DHT22;4060;49.186;9.226;2024-02-15T04:54:56;13.20;76.80
7254;DHT22;4060;49.186;9.226;2024-02-15T04:57:27;13.20;76.70
7254;DHT22;4060;49.186;9.226;2024-02-15T04:59:57;13.20;76.80
7254;DHT22;4060;49.186;9.226;2024-02-15T05:02:27;13.20;76.80
7254;DHT22;4060;49.186;9.226;2024-02-15T05:04:57;13.20;76.80
7254;DHT22;4060;49.186;9.226;2024-02-15T05:07:26;13.20;76.80
7254;DHT22;4060;49.186;9.226;2024-02-15T05:09:56;13.20;76.80
7254;DHT22;4060;49.186;9.226;2024-02-15T05:12:29;13.20;76.90
7254;DHT22;4060;49.186;9.226;2024-02-15T05:14:59;13.20;76.90
7254;DHT22;4060;49.186;9.226;2024-02-15T05:17:29;13.20;76.90
7254;DHT22;4060;49.186;9.226;2024-02-15T05:19:59;13.20;77.00
7254;DHT22;4060;49.186;9.226;2024-02-15T05:22:28;13.20;77.00
7254;DHT22;4060;49.186;9.226;2024-02-15T05:25:00;13.20;77.00
7254;DHT22;4060;49.186;9.226;2024-02-15T05:27:34;13.20;77.10
7254;DHT22;4060;49.186;9.226;2024-02-15T05:30:05;13.10;77.00
7254;DHT22;4060;49.186;9.226;2024-02-15T05:32:35;13.10;77.10
7254;DHT22;4060;49.186;9.226;2024-02-15T05:35:10;13.10;77.10
7254;DHT22;4060;49.186;9.226;2024-02-15T05:37:40;13.10;77.10
7254;DHT22;4060;49.186;9.226;2024-02-15T05:40:10;13.10;77.20
7254;DHT22;4060;49.186;9.226;2024-02-15T05:42:45;13.10;77.20
7254;DHT22;4060;49.186;9.226;2024-02-15T05:45:32;13.10;77.20
7254;DHT22;4060;49.186;9.226;2024-02-15T05:48:05;13.10;77.40
7254;DHT22;4060;49.186;9.226;2024-02-15T05:50:39;13.10;77.40
7254;DHT22;4060;49.186;9.226;2024-02-15T05:53:09;13.10;77.30
7254;DHT22;4060;49.186;9.226;2024-02-15T05:55:40;13.10;77.40
7254;DHT22;4060;49.186;9.226;2024-02-15T05:58:13;13.10;77.40
7254;DHT22;4060;49.186;9.226;2024-02-15T06:00:43;13.10;77.40
7254;DHT22;4060;49.186;9.226;2024-02-15T06:03:18;13.10;77.40
7254;DHT22;4060;49.186;9.226;2024-02-15T06:05:49;13.10;77.30
7254;DHT22;4060;49.186;9.226;2024-02-15T06:08:19;13.10;77.40
7254;DHT22;4060;49.186;9.226;2024-02-15T06:10:50;13.10;77.40
7254;DHT22;4060;49.186;9.226;2024-02-15T06:13:22;13.10;77.40
7254;DHT22;4060;49.186;9.226;2024-02-15T06:15:53;13.10;77.40
7254;DHT22;4060;49.186;9.226;2024-02-15T06:18:25;13.10;77.40
7254;DHT22;4060;49.186;9.226;2024-02-15T06:20:56;13.10;77.40
7254;DHT22;4060;49.186;9.226;2024-02-15T06:23:27;13.10;77.40
7254;DHT22;4060;49.186;9.226;2024-02-15T06:25:58;13.10;77.40
7254;DHT22;4060;49.186;9.226;2024-02-15T06:28:30;13.10;77.30
7254;DHT22;4060;49.186;9.226;2024-02-15T06:31:29;13.10;77.40
7254;DHT22;4060;49.186;9.226;2024-02-15T06:34:17;13.10;77.40
7254;DHT22;4060;49.186;9.226;2024-02-15T06:37:02;13.10;78.10
7254;DHT22;4060;49.186;9.226;2024-02-15T06:39:49;13.10;77.30
7254;DHT22;4060;49.186;9.226;2024-02-15T06:42:19;13.10;77.30
7254;DHT22;4060;49.186;9.226;2024-02-15T06:44:52;13.10;77.40
7254;DHT22;4060;49.186;9.226;2024-02-15T06:47:22;13.10;77.40
7254;DHT22;4060;49.186;9.226;2024-02-15T06:49:52;13.10;77.30
7254;DHT22;4060;49.186;9.226;2024-02-15T06:52:23;13.10;77.40
7254;DHT22;4060;49.186;9.226;2024-02-15T06:54:53;13.10;77.30
7254;DHT22;4060;49.186;9.226;2024-02-15T06:57:23;13.10;77.40
7254;DHT22;4060;49.186;9.226;2024-02-15T06:59:55;13.10;77.40
7254;DHT22;4060;49.186;9.226;2024-02-15T07:02:24;13.10;77.30
7254;DHT22;4060;49.186;9.226;2024-02-15T07:04:54;13.10;77.40
7254;DHT22;4060;49.186;9.226;2024-02-15T07:07:24;13.10;77.30
7254;DHT22;4060;49.186;9.226;2024-02-15T07:09:55;13.10;77.30
7254;DHT22;4060;49.186;9.226;2024-02-15T07:12:25;13.10;77.20
7254;DHT22;4060;49.186;9.226;2024-02-15T07:14:56;13.10;77.30
7254;DHT22;4060;49.186;9.226;2024-02-15T07:17:28;13.10;77.30
7254;DHT22;4060;49.186;9.226;2024-02-15T07:19:58;13.10;77.20
7254;DHT22;4060;49.186;9.226;2024-02-15T07:22:28;13.10;77.20
7254;DHT22;4060;49.186;9.226;2024-02-15T07:24:59;13.10;77.30
7254;DHT22;4060;49.186;9.226;2024-02-15T07:27:29;13.10;77.30
7254;DHT22;4060;49.186;9.226;2024-02-15T07:30:04;13.10;77.30
7254;DHT22;4060;49.186;9.226;2024-02-15T07:32:35;13.10;77.30
7254;DHT22;4060;49.186;9.226;2024-02-15T07:35:06;13.10;77.40
7254;DHT22;4060;49.186;9.226;2024-02-15T07:37:36;13.10;77.40
7254;DHT22;4060;49.186;9.226;2024-02-15T07:40:07;13.10;77.40
7254;DHT22;4060;49.186;9.226;2024-02-15T07:42:37;13.10;77.40
7254;DHT22;4060;49.186;9.226;2024-02-15T07:45:10;13.10;77.50
7254;DHT22;4060;49.186;9.226;2024-02-15T07:47:40;13.10;77.60
7254;DHT22;4060;49.186;9.226;2024-02-15T07:50:15;13.10;77.50
7254;DHT22;4060;49.186;9.226;2024-02-15T07:52:47;13.10;77.60
7254;DHT22;4060;49.186;9.226;2024-02-15T07:55:18;13.10;77.50
7254;DHT22;4060;49.186;9.226;2024-02-15T07:57:49;13.20;77.70
7254;DHT22;4060;49.186;9.226;2024-02-15T08:00:23;13.20;77.70
7254;DHT22;4060;49.186;9.226;2024-02-15T08:02:55;13.20;77.70
7254;DHT22;4060;49.186;9.226;2024-02-15T08:05:24;13.20;77.70
7254;DHT22;4060;49.186;9.226;2024-02-15T08:07:54;13.20;77.70
7254;DHT22;4060;49.186;9.226;2024-02-15T08:10:25;13.20;77.70
7254;DHT22;4060;49.186;9.226;2024-02-15T08:12:56;13.20;77.80
7254;DHT22;4060;49.186;9.226;2024-02-15T08:15:29;13.20;77.80
7254;DHT22;4060;49.186;9.226;2024-02-15T08:18:00;13.30;78.00
7254;DHT22;4060;49.186;9.226;2024-02-15T08:20:32;13.30;77.90
7254;DHT22;4060;49.186;9.226;2024-02-15T08:23:02;13.30;78.00
7254;DHT22;4060;49.186;9.226;2024-02-15T08:25:32;13.30;78.00
7254;DHT22;4060;49.186;9.226;2024-02-15T08:28:05;13.30;78.00
7254;DHT22;4060;49.186;9.226;2024-02-15T08:30:37;13.30;78.00
7254;DHT22;4060;49.186;9.226;2024-02-15T08:33:07;13.30;78.00
7254;DHT22;4060;49.186;9.226;2024-02-15T08:35:39;13.40;78.10
7254;DHT22;4060;49.186;9.226;2024-02-15T08:38:09;13.40;78.20
7254;DHT22;4060;49.186;9.226;2024-02-15T08:40:39;13.40;78.20
7254;DHT22;4060;49.186;9.226;2024-02-15T08:43:09;13.40;78.30
7254;DHT22;4060;49.186;9.226;2024-02-15T08:45:44;13.40;78.30
7254;DHT22;4060;49.186;9.226;2024-02-15T08:48:15;13.40;78.30
7254;DHT22;4060;49.186;9.226;2024-02-15T08:50:44;13.50;78.50
7254;DHT22;4060;49.186;9.226;2024-02-15T08:53:14;13.50;78.40
7254;DHT22;4060;49.186;9.226;2024-02-15T08:55:46;13.50;78.30
7254;DHT22;4060;49.186;9.226;2024-02-15T08:58:15;13.50;78.40
7254;DHT22;4060;49.186;9.226;2024-02-15T09:00:47;13.50;78.40
7254;DHT22;4060;49.186;9.226;2024-02-15T09:03:17;13.60;78.60
7254;DHT22;4060;49.186;9.226;2024-02-15T09:05:46;13.60;78.50
7254;DHT22;4060;49.186;9.226;2024-02-15T09:08:16;13.60;78.60
7254;DHT22;4060;49.186;9.226;2024-02-15T09:10:49;13.60;78.60
7254;DHT22;4060;49.186;9.226;2024-02-15T09:13:20;13.60;78.40
7254;DHT22;4060;49.186;9.226;2024-02-15T09:15:52;13.60;78.40
7254;DHT22;4060;49.186;9.226;2024-02-15T09:18:22;13.60;78.50
7254;DHT22;4060;49.186;9.226;2024-02-15T09:20:51;13.60;78.40
7254;DHT22;4060;49.186;9.226;2024-02-15T09:23:22;13.70;78.60
7254;DHT22;4060;49.186;9.226;2024-02-15T09:25:53;13.70;78.70
7254;DHT22;4060;49.186;9.226;2024-02-15T09:28:22;13.70;78.80
7254;DHT22;4060;49.186;9.226;2024-02-15T09:30:54;13.70;78.80
7254;DHT22;4060;49.186;9.226;2024-02-15T09:33:26;13.80;78.80
7254;DHT22;4060;49.186;9.226;2024-02-15T09:35:56;13.80;78.60
7254;DHT22;4060;49.186;9.226;2024-02-15T09:38:26;13.80;78.70
7254;DHT22;4060;49.186;9.226;2024-02-15T09:40:56;13.90;79.00
7254;DHT22;4060;49.186;9.226;2024-02-15T09:43:26;13.90;79.10
7254;DHT22;4060;49.186;9.226;2024-02-15T09:45:59;14.00;79.20
7254;DHT22;4060;49.186;9.226;2024-02-15T09:48:32;14.00;79.10
7254;DHT22;4060;49.186;9.226;2024-02-15T09:51:04;14.10;79.20
7254;DHT22;4060;49.186;9.226;2024-02-15T09:53:36;14.10;79.20
7254;DHT22;4060;49.186;9.226;2024-02-15T09:56:07;14.20;79.10
7254;DHT22;4060;49.186;9.226;2024-02-15T09:58:38;14.20;79.40
7254;DHT22;4060;49.186;9.226;2024-02-15T10:01:11;14.30;79.50
7254;DHT22;4060;49.186;9.226;2024-02-15T10:03:42;14.30;79.40
7254;DHT22;4060;49.186;9.226;2024-02-15T10:06:11;14.30;79.20
7254;DHT22;4060;49.186;9.226;2024-02-15T10:08:41;14.40;79.30
7254;DHT22;4060;49.186;9.226;2024-02-15T10:11:11;14.40;79.30
7254;DHT22;4060;49.186;9.226;2024-02-15T10:13:41;14.40;79.20
7254;DHT22;4060;49.186;9.226;2024-02-15T10:16:19;14.50;79.10
7254;DHT22;4060;49.186;9.226;2024-02-15T10:18:52;14.50;79.20
7254;DHT22;4060;49.186;9.226;2024-02-15T10:21:27;14.50;79.20
7254;DHT22;4060;49.186;9.226;2024-02-15T10:24:08;14.60;79.20
7254;DHT22;4060;49.186;9.226;2024-02-15T10:26:39;14.60;79.10
7254;DHT22;4060;49.186;9.226;2024-02-15T10:29:09;14.60;79.00
7254;DHT22;4060;49.186;9.226;2024-02-15T10:31:54;14.70;79.10
7254;DHT22;4060;49.186;9.226;2024-02-15T10:34:24;14.70;79.00
7254;DHT22;4060;49.186;9.226;2024-02-15T10:37:10;14.70;78.80
7254;DHT22;4060;49.186;9.226;2024-02-15T10:39:41;14.70;78.50
7254;DHT22;4060;49.186;9.226;2024-02-15T10:42:11;14.80;78.40
7254;DHT22;4060;49.186;9.226;2024-02-15T10:44:42;14.80;78.30
7254;DHT22;4060;49.186;9.226;2024-02-15T10:47:16;14.80;78.20
7254;DHT22;4060;49.186;9.226;2024-02-15T10:49:47;14.90;78.20
7254;DHT22;4060;49.186;9.226;2024-02-15T10:52:17;14.90;78.10
7254;DHT22;4060;49.186;9.226;2024-02-15T10:54:50;14.90;77.90
7254;DHT22;4060;49.186;9.226;2024-02-15T10:57:22;14.90;77.80
7254;DHT22;4060;49.186;9.226;2024-02-15T10:59:57;15.00;77.90
7254;DHT22;4060;49.186;9.226;2024-02-15T11:02:31;15.00;77.90
7254;DHT22;4060;49.186;9.226;2024-02-15T11:05:06;15.00;77.60
7254;DHT22;4060;49.186;9.226;2024-02-15T11:07:37;15.00;77.50
7254;DHT22;4060;49.186;9.226;2024-02-15T11:10:09;15.00;77.30
7254;DHT22;4060;49.186;9.226;2024-02-15T11:12:45;15.10;77.00
7254;DHT22;4060;49.186;9.226;2024-02-15T11:15:42;15.10;76.50
7254;DHT22;4060;49.186;9.226;2024-02-15T11:18:46;15.10;76.20
7254;DHT22;4060;49.186;9.226;2024-02-15T11:21:18;15.20;77.10
7254;DHT22;4060;49.186;9.226;2024-02-15T11:24:25;15.20;76.30
7254;DHT22;4060;49.186;9.226;2024-02-15T11:26:59;15.20;76.20
7254;DHT22;4060;49.186;9.226;2024-02-15T11:29:48;15.20;76.00
7254;DHT22;4060;49.186;9.226;2024-02-15T11:32:38;15.30;75.90
7254;DHT22;4060;49.186;9.226;2024-02-15T11:35:13;15.30;75.90
7254;DHT22;4060;49.186;9.226;2024-02-15T11:37:56;15.30;75.60
7254;DHT22;4060;49.186;9.226;2024-02-15T11:41:03;15.30;75.40
7254;DHT22;4060;49.186;9.226;2024-02-15T11:44:03;15.30;75.30
7254;DHT22;4060;49.186;9.226;2024-02-15T11:46:33;15.40;75.10
7254;DHT22;4060;49.186;9.226;2024-02-15T11:49:04;15.40;75.10
7254;DHT22;4060;49.186;9.226;2024-02-15T11:51:38;15.40;75.10
7254;DHT22;4060;49.186;9.226;2024-02-15T11:54:10;15.50;75.10
7254;DHT22;4060;49.186;9.226;2024-02-15T11:56:54;15.50;74.90
7254;DHT22;4060;49.186;9.226;2024-02-15T11:59:40;15.60;74.70
7254;DHT22;4060;49.186;9.226;2024-02-15T12:02:43;15.60;74.80
7254;DHT22;4060;49.186;9.226;2024-02-15T12:05:29;15.60;74.90
7254;DHT22;4060;49.186;9.226;2024-02-15T12:08:16;15.70;75.00
7254;DHT22;4060;49.186;9.226;2024-02-15T12:11:02;15.70;74.90
7254;DHT22;4060;49.186;9.226;2024-02-15T12:13:51;15.70;74.70
7254;DHT22;4060;49.186;9.226;2024-02-15T12:16:37;15.70;74.70
7254;DHT22;4060;49.186;9.226;2024-02-15T12:19:24;15.80;74.80
7254;DHT22;4060;49.186;9.226;2024-02-15T12:21:56;15.80;74.70
7254;DHT22;4060;49.186;9.226;2024-02-15T12:24:28;15.80;74.50
7254;DHT22;4060;49.186;9.226;2024-02-15T12:27:01;15.90;74.50
7254;DHT22;4060;49.186;9.226;2024-02-15T12:29:32;15.90;74.20
7254;DHT22;4060;49.186;9.226;2024-02-15T12:32:03;15.90;73.80
7254;DHT22;4060;49.186;9.226;2024-02-15T12:34:32;15.90;73.70
7254;DHT22;4060;49.186;9.226;2024-02-15T12:37:08;16.00;73.80
7254;DHT22;4060;49.186;9.226;2024-02-15T12:39:40;16.00;73.70
7254;DHT22;4060;49.186;9.226;2024-02-15T12:42:11;16.00;73.60
7254;DHT22;4060;49.186;9.226;2024-02-15T12:44:46;16.10;73.50
7254;DHT22;4060;49.186;9.226;2024-02-15T12:47:20;16.10;73.20
7254;DHT22;4060;49.186;9.226;2024-02-15T12:49:51;16.10;73.30
7254;DHT22;4060;49.186;9.226;2024-02-15T12:52:36;16.10;73.40
7254;DHT22;4060;49.186;9.226;2024-02-15T12:55:17;16.20;73.30
7254;DHT22;4060;49.186;9.226;2024-02-15T12:57:48;16.20;73.00
7254;DHT22;4060;49.186;9.226;2024-02-15T13:00:19;16.20;72.70
7254;DHT22;4060;49.186;9.226;2024-02-15T13:02:50;16.20;72.60
7254;DHT22;4060;49.186;9.226;2024-02-15T13:05:20;16.30;72.80
7254;DHT22;4060;49.186;9.226;2024-02-15T13:07:51;16.30;72.80
7254;DHT22;4060;49.186;9.226;2024-02-15T13:10:24;16.30;72.70
7254;DHT22;4060;49.186;9.226;2024-02-15T13:12:54;16.30;72.50
7254;DHT22;4060;49.186;9.226;2024-02-15T13:15:25;16.30;72.00
7254;DHT22;4060;49.186;9.226;2024-02-15T13:18:04;16.40;71.60
7254;DHT22;4060;49.186;9.226;2024-02-15T13:20:37;16.40;71.50
7254;DHT22;4060;49.186;9.226;2024-02-15T13:23:07;16.40;71.20
7254;DHT22;4060;49.186;9.226;2024-02-15T13:25:44;16.50;71.40
7254;DHT22;4060;49.186;9.226;2024-02-15T13:28:13;16.50;71.40
7254;DHT22;4060;49.186;9.226;2024-02-15T13:30:43;16.50;71.40
7254;DHT22;4060;49.186;9.226;2024-02-15T13:33:13;16.50;71.50
7254;DHT22;4060;49.186;9.226;2024-02-15T13:35:58;16.50;71.70
7254;DHT22;4060;49.186;9.226;2024-02-15T13:38:28;16.60;71.40
7254;DHT22;4060;49.186;9.226;2024-02-15T13:40:59;16.60;71.30
7254;DHT22;4060;49.186;9.226;2024-02-15T13:43:30;16.60;71.20
7254;DHT22;4060;49.186;9.226;2024-02-15T13:46:00;16.60;71.10
7254;DHT22;4060;49.186;9.226;2024-02-15T13:48:30;16.60;70.90
7254;DHT22;4060;49.186;9.226;2024-02-15T13:51:06;16.60;70.60
7254;DHT22;4060;49.186;9.226;2024-02-15T13:53:36;16.70;70.70
7254;DHT22;4060;49.186;9.226;2024-02-15T13:56:08;16.70;70.60
7254;DHT22;4060;49.186;9.226;2024-02-15T13:58:38;16.70;70.60
7254;DHT22;4060;49.186;9.226;2024-02-15T14:01:07;16.80;70.80
7254;DHT22;4060;49.186;9.226;2024-02-15T14:03:42;16.80;70.90
7254;DHT22;4060;49.186;9.226;2024-02-15T14:06:13;16.80;70.80
7254;DHT22;4060;49.186;9.226;2024-02-15T14:08:43;16.80;70.60
7254;DHT22;4060;49.186;9.226;2024-02-15T14:11:16;16.80;70.50
7254;DHT22;4060;49.186;9.226;2024-02-15T14:13:45;16.80;70.40
7254;DHT22;4060;49.186;9.226;2024-02-15T14:16:15;16.80;70.10
7254;DHT22;4060;49.186;9.226;2024-02-15T14:18:44;16.80;69.70
7254;DHT22;4060;49.186;9.226;2024-02-15T14:21:15;16.80;69.30
7254;DHT22;4060;49.186;9.226;2024-02-15T14:23:46;16.90;69.00
7254;DHT22;4060;49.186;9.226;2024-02-15T14:26:18;16.90;68.90
7254;DHT22;4060;49.186;9.226;2024-02-15T14:28:52;16.90;68.80
7254;DHT22;4060;49.186;9.226;2024-02-15T14:31:22;16.90;68.90
7254;DHT22;4060;49.186;9.226;2024-02-15T14:34:08;17.00;69.00
7254;DHT22;4060;49.186;9.226;2024-02-15T14:36:37;17.00;69.00
7254;DHT22;4060;49.186;9.226;2024-02-15T14:39:07;17.00;69.00
7254;DHT22;4060;49.186;9.226;2024-02-15T14:41:39;17.00;69.00
7254;DHT22;4060;49.186;9.226;2024-02-15T14:44:10;17.00;69.00
7254;DHT22;4060;49.186;9.226;2024-02-15T14:46:41;17.00;69.00
7254;DHT22;4060;49.186;9.226;2024-02-15T14:49:11;17.00;68.90
7254;DHT22;4060;49.186;9.226;2024-02-15T14:51:40;17.00;68.80
7254;DHT22;4060;49.186;9.226;2024-02-15T14:54:09;17.00;68.70
7254;DHT22;4060;49.186;9.226;2024-02-15T14:56:42;17.10;68.60
7254;DHT22;4060;49.186;9.226;2024-02-15T14:59:12;17.10;68.40
7254;DHT22;4060;49.186;9.226;2024-02-15T15:01:42;17.10;68.20
7254;DHT22;4060;49.186;9.226;2024-02-15T15:04:13;17.10;68.00
7254;DHT22;4060;49.186;9.226;2024-02-15T15:06:45;17.10;68.00
7254;DHT22;4060;49.186;9.226;2024-02-15T15:09:31;17.10;67.70
7254;DHT22;4060;49.186;9.226;2024-02-15T15:12:19;17.10;67.70
7254;DHT22;4060;49.186;9.226;2024-02-15T15:15:06;17.10;67.70
7254;DHT22;4060;49.186;9.226;2024-02-15T15:17:38;17.10;67.70
7254;DHT22;4060;49.186;9.226;2024-02-15T15:20:09;17.10;67.60
7254;DHT22;4060;49.186;9.226;2024-02-15T15:22:39;17.20;67.40
7254;DHT22;4060;49.186;9.226;2024-02-15T15:25:09;17.10;67.00
7254;DHT22;4060;49.186;9.226;2024-02-15T15:27:41;17.20;67.00
7254;DHT22;4060;49.186;9.226;2024-02-15T15:30:11;17.20;66.90
7254;DHT22;4060;49.186;9.226;2024-02-15T15:32:43;17.20;66.70
7254;DHT22;4060;49.186;9.226;2024-02-15T15:35:14;17.20;66.50
7254;DHT22;4060;49.186;9.226;2024-02-15T15:37:45;17.20;66.50
7254;DHT22;4060;49.186;9.226;2024-02-15T15:40:18;17.20;66.50
7254;DHT22;4060;49.186;9.226;2024-02-15T15:42:50;17.20;66.40
7254;DHT22;4060;49.186;9.226;2024-02-15T15:45:20;17.20;66.20
7254;DHT22;4060;49.186;9.226;2024-02-15T15:47:49;17.20;66.20
7254;DHT22;4060;49.186;9.226;2024-02-15T15:50:20;17.20;66.10
7254;DHT22;4060;49.186;9.226;2024-02-15T15:52:50;17.20;66.00
7254;DHT22;4060;49.186;9.226;2024-02-15T15:55:21;17.20;65.90
7254;DHT22;4060;49.186;9.226;2024-02-15T15:57:52;17.20;66.10
7254;DHT22;4060;49.186;9.226;2024-02-15T16:00:22;17.20;66.50
7254;DHT22;4060;49.186;9.226;2024-02-15T16:03:01;17.20;66.60
7254;DHT22;4060;49.186;9.226;2024-02-15T16:05:33;17.20;67.10
7254;DHT22;4060;49.186;9.226;2024-02-15T16:08:04;17.20;67.40
7254;DHT22;4060;49.186;9.226;2024-02-15T16:10:34;17.20;67.60
7254;DHT22;4060;49.186;9.226;2024-02-15T16:13:07;17.20;67.70
7254;DHT22;4060;49.186;9.226;2024-02-15T16:15:37;17.20;67.80
7254;DHT22;4060;49.186;9.226;2024-02-15T16:18:07;17.20;67.80
7254;DHT22;4060;49.186;9.226;2024-02-15T16:20:37;17.20;67.70
7254;DHT22;4060;49.186;9.226;2024-02-15T16:23:07;17.20;67.60
7254;DHT22;4060;49.186;9.226;2024-02-15T16:25:36;17.20;67.60
7254;DHT22;4060;49.186;9.226;2024-02-15T16:28:08;17.20;67.70
7254;DHT22;4060;49.186;9.226;2024-02-15T16:30:38;17.20;67.60
7254;DHT22;4060;49.186;9.226;2024-02-15T16:33:07;17.20;67.70
7254;DHT22;4060;49.186;9.226;2024-02-15T16:35:38;17.20;67.90